Time;durP1;ratioP1;P1;durP2;ratioP2;P2;SDS_P1;SDS_P2;PMS_P1;PMS_P2;Temp;Humidity;BMP_temperature;BMP_pressure;BME280_temperature;BME280_humidity;BME280_pressure;Samples;Min_cycle;Max_cycle;Signal;HPM_P1;HPM_P2
2022/01/31 00:04:24;;;;;;;11.23;7.53;;;4.30;96.80;;;;;;6164489;23;20397;-83
2022/01/31 00:08:21;;;;;;;26.33;8.10;;;4.30;96.80;;;;;;6177582;23;20418;-83
2022/01/31 00:40:55;;;;;;;17.80;11.63;;;4.40;98.90;;;;;;6056152;23;20454;-83
2022/01/31 01:01:18;;;;;;;;;;;;;;;;;;;;;
2022/01/31 01:04:40;;;;;;;14.40;6.73;;;5.00;95.70;;;;;;6122593;23;20434;-83
2022/01/31 01:18:09;;;;;;;;;;;;;;;;;;;;;
2022/01/31 01:28:22;;;;;;;26.90;7.27;;;5.20;95.20;;;;;;6067329;23;20424;-83
2022/01/31 01:38:06;;;;;;;;;;;;;;;;;;;;;
2022/01/31 02:17:45;;;;;;;25.03;22.57;;;5.40;98.10;;;;;;6115139;23;20480;-82
2022/01/31 02:21:11;;;;;;;42.00;38.63;;;5.20;99.90;;;;;;6097203;23;20450;-82
2022/01/31 02:27:20;;;;;;;70.10;66.57;;;5.10;99.90;;;;;;6072146;23;20496;-81
2022/01/31 02:30:48;;;;;;;157.50;151.67;;;5.00;99.90;;;;;;6082248;23;20873;-82
2022/01/31 02:40:18;;;;;;;528.97;510.20;;;4.60;99.90;;;;;;6154845;23;20438;-81
2022/01/31 02:46:53;;;;;;;703.77;672.60;;;4.50;99.90;;;;;;6161209;23;20413;-81
2022/01/31 02:50:01;;;;;;;734.27;697.20;;;4.40;99.90;;;;;;6065956;23;20443;-81
2022/01/31 02:53:11;;;;;;;705.77;673.27;;;4.40;99.90;;;;;;6070547;23;20418;-81
2022/01/31 03:02:47;;;;;;;648.57;607.43;;;4.20;99.90;;;;;;6131314;23;20438;-80
2022/01/31 03:08:57;;;;;;;694.63;640.13;;;4.00;99.90;;;;;;6163975;23;20410;-81
2022/01/31 03:11:50;;;;;;;675.07;622.97;;;3.90;99.90;;;;;;6174698;23;20469;-80
2022/01/31 03:14:53;;;;;;;676.63;624.93;;;3.90;99.90;;;;;;6173748;23;20423;-80
2022/01/31 03:18:00;;;;;;;683.63;630.50;;;4.00;99.90;;;;;;6158991;23;20492;-80
2022/01/31 03:21:07;;;;;;;;;;;;;;;;;;;;;
2022/01/31 03:24:15;;;;;;;660.27;607.17;;;4.10;99.90;;;;;;6175081;23;20394;-81
2022/01/31 03:33:25;;;;;;;662.00;607.17;;;3.80;99.90;;;;;;6081112;23;20482;-81
2022/01/31 03:39:05;;;;;;;672.60;615.60;;;3.90;99.90;;;;;;6050557;23;20425;-81
2022/01/31 03:41:52;;;;;;;672.97;612.47;;;3.90;99.90;;;;;;6157249;23;20509;-81
2022/01/31 03:44:35;;;;;;;668.43;610.17;;;3.90;99.90;;;;;;6176954;23;20425;-81
2022/01/31 03:47:14;;;;;;;662.93;605.00;;;4.10;99.90;;;;;;6173185;23;20516;-81
2022/01/31 04:00:05;;;;;;;617.03;569.83;;;4.40;99.90;;;;;;6108164;23;20426;-82
2022/01/31 04:21:08;;;;;;;;;;;;;;;;;;;;;
2022/01/31 04:27:43;;;;;;;;;;;;;;;;;;;;;
2022/01/31 04:31:13;;;;;;;613.27;568.10;;;5.00;99.90;;;;;;6174657;23;20538;-82
2022/01/31 04:34:11;;;;;;;599.23;560.80;;;5.00;99.90;;;;;;6165074;23;20966;-83
2022/01/31 05:32:05;;;;;;;568.90;538.33;;;5.50;99.90;;;;;;5987681;23;20418;-85
2022/01/31 06:38:25;;;;;;;177.17;171.00;;;6.20;99.90;;;;;;6163247;23;20492;-83
2022/01/31 06:41:25;;;;;;;241.37;233.33;;;6.10;99.90;;;;;;6160484;23;20517;-83
2022/01/31 06:44:27;;;;;;;192.87;186.27;;;6.00;99.90;;;;;;6142867;23;20472;-82
2022/01/31 06:51:02;;;;;;;243.80;236.10;;;6.10;99.90;;;;;;6044464;23;20448;-82
2022/01/31 06:53:42;;;;;;;322.63;311.13;;;5.90;99.90;;;;;;6126447;23;20414;-84
2022/01/31 06:56:28;;;;;;;401.30;387.77;;;5.70;99.90;;;;;;6173200;23;20880;-81
2022/01/31 06:58:55;;;;;;;475.07;458.87;;;5.50;99.90;;;;;;6171602;23;20417;-80
2022/01/31 07:04:54;;;;;;;341.37;329.57;;;5.10;99.90;;;;;;6135766;23;20797;-82
2022/01/31 07:17:55;;;;;;;577.10;550.53;;;4.70;99.90;;;;;;5980118;23;20418;-82
2022/01/31 07:23:27;;;;;;;653.53;604.13;;;5.20;99.90;;;;;;6066524;23;20444;-82
2022/01/31 07:26:27;;;;;;;655.13;606.53;;;5.10;99.90;;;;;;6124612;23;20444;-83
2022/01/31 07:29:29;;;;;;;667.23;618.37;;;5.10;99.90;;;;;;6170633;23;20424;-83
2022/01/31 07:46:02;;;;;;;;;;;;;;;;;;;;;
2022/01/31 07:49:13;;;;;;;685.80;631.75;;;5.00;99.90;;;;;;6072003;23;20425;-85
2022/01/31 07:55:15;;;;;;;637.93;595.73;;;5.10;99.90;;;;;;6069644;23;20404;-82
2022/01/31 07:57:55;;;;;;;597.67;564.70;;;5.10;99.90;;;;;;6081081;23;20415;-85
2022/01/31 08:10:37;;;;;;;597.30;565.37;;;5.70;99.90;;;;;;6187499;23;20432;-84
2022/01/31 08:13:24;;;;;;;583.27;553.33;;;5.80;99.90;;;;;;6202823;23;20413;-84
2022/01/31 08:19:46;;;;;;;563.03;537.30;;;5.30;99.90;;;;;;6200695;23;20480;-83
2022/01/31 08:22:47;;;;;;;560.33;532.33;;;5.70;99.90;;;;;;6202169;23;20413;-84
2022/01/31 08:26:04;;;;;;;525.43;502.47;;;5.20;99.90;;;;;;6159593;23;20582;-86
2022/01/31 08:29:19;;;;;;;524.10;502.20;;;5.50;99.90;;;;;;6190063;23;20487;-84
2022/01/31 08:37:58;;;;;;;482.23;463.83;;;5.60;99.90;;;;;;6206244;23;20424;-84
2022/01/31 08:46:52;;;;;;;584.27;554.97;;;5.30;99.90;;;;;;6041149;23;20445;-82
2022/01/31 08:52:45;;;;;;;605.63;573.80;;;5.70;99.90;;;;;;6173792;23;20417;-83
2022/01/31 08:55:44;;;;;;;607.03;573.80;;;5.40;99.90;;;;;;6190106;23;20407;-83
2022/01/31 08:58:42;;;;;;;607.90;574.03;;;5.60;99.90;;;;;;6156321;23;20417;-83
2022/01/31 09:01:37;;;;;;;622.43;585.30;;;5.40;99.90;;;;;;6199960;23;20433;-83
2022/01/31 09:04:31;;;;;;;640.20;598.30;;;5.40;99.90;;;;;;6186115;23;20443;-83
2022/01/31 09:10:24;;;;;;;656.17;608.10;;;5.60;99.90;;;;;;6192275;23;20467;-83
2022/01/31 09:13:20;;;;;;;638.70;594.20;;;5.70;99.90;;;;;;6126094;23;20503;-84
2022/01/31 09:16:22;;;;;;;636.83;593.70;;;5.50;99.90;;;;;;6202135;23;20412;-84
2022/01/31 09:18:56;;;;;;;634.27;590.33;;;5.40;99.90;;;;;;6156021;23;20428;-84
2022/01/31 09:21:22;;;;;;;640.67;596.67;;;5.60;99.90;;;;;;6198887;23;20433;-81
2022/01/31 09:23:52;;;;;;;642.00;597.00;;;5.70;99.90;;;;;;6185906;23;20528;-81
2022/01/31 09:26:23;;;;;;;623.23;582.07;;;5.70;99.90;;;;;;6186532;23;20895;-81
2022/01/31 09:28:51;;;;;;;636.00;591.43;;;5.70;99.90;;;;;;6186775;23;20398;-82
2022/01/31 09:31:18;;;;;;;630.67;586.97;;;5.40;99.90;;;;;;6187589;23;20872;-80
2022/01/31 09:33:45;;;;;;;621.40;579.80;;;5.80;99.90;;;;;;6188891;23;20409;-82
2022/01/31 09:36:11;;;;;;;632.47;588.50;;;5.40;99.90;;;;;;6189449;23;20777;-82
2022/01/31 09:38:40;;;;;;;641.63;593.50;;;5.80;99.90;;;;;;6191733;23;20416;-82
2022/01/31 09:41:09;;;;;;;653.83;603.33;;;5.90;99.90;;;;;;6190996;23;20432;-81
2022/01/31 09:49:23;;;;;;;647.00;601.27;;;6.00;99.90;;;;;;6190797;23;20440;-83
2022/01/31 09:51:55;;;;;;;643.67;599.50;;;5.60;99.90;;;;;;6191657;23;20393;-84
2022/01/31 09:54:25;;;;;;;626.00;583.47;;;5.60;99.90;;;;;;6192340;23;20394;-83
2022/01/31 09:56:54;;;;;;;625.03;579.20;;;5.90;99.90;;;;;;6192402;23;20417;-83
2022/01/31 09:59:26;;;;;;;630.03;584.57;;;5.70;99.90;;;;;;6191573;23;20429;-82
2022/01/31 10:01:57;;;;;;;639.13;592.90;;;5.90;99.90;;;;;;6191121;23;20393;-83
2022/01/31 10:04:29;;;;;;;627.07;583.57;;;6.00;99.90;;;;;;6203000;23;20471;-82
2022/01/31 10:06:59;;;;;;;635.70;588.10;;;5.80;99.90;;;;;;6201585;23;20405;-83
2022/01/31 10:09:31;;;;;;;628.73;585.93;;;6.00;99.90;;;;;;6202326;23;20437;-83
2022/01/31 10:12:06;;;;;;;636.97;591.90;;;6.00;99.90;;;;;;6201338;23;20418;-82
2022/01/31 10:17:27;;;;;;;646.70;597.47;;;8.30;99.90;;;;;;6201997;23;20479;-83
2022/01/31 10:20:00;;;;;;;632.20;585.93;;;8.30;99.90;;;;;;6202280;23;20433;-83
2022/01/31 10:22:31;;;;;;;635.37;587.37;;;8.20;99.90;;;;;;6200964;23;20459;-82
2022/01/31 10:25:02;;;;;;;643.77;594.67;;;9.30;99.90;;;;;;6199545;23;20757;-82
2022/01/31 10:27:33;;;;;;;638.67;589.33;;;9.10;99.90;;;;;;6200447;23;20409;-83
2022/01/31 10:30:10;;;;;;;639.00;590.90;;;9.10;99.90;;;;;;6190038;23;20467;-82
2022/01/31 10:32:39;;;;;;;646.27;596.27;;;9.10;99.90;;;;;;6189144;23;20455;-83
2022/01/31 10:35:08;;;;;;;647.63;599.20;;;8.80;99.90;;;;;;6199609;23;20417;-84
2022/01/31 10:37:39;;;;;;;636.63;590.30;;;8.80;99.90;;;;;;6201978;23;20404;-83
2022/01/31 10:43:35;;;;;;;640.17;592.90;;;9.10;99.90;;;;;;6187176;23;20762;-83
2022/01/31 10:46:08;;;;;;;628.03;581.63;;;9.40;99.90;;;;;;6187346;23;20443;-83
2022/01/31 10:51:54;;;;;;;610.40;569.10;;;9.70;99.90;;;;;;6187788;23;20508;-84
2022/01/31 10:54:42;;;;;;;623.50;575.40;;;9.60;99.90;;;;;;6188905;23;20984;-84
2022/01/31 10:57:15;;;;;;;628.37;580.03;;;10.00;99.90;;;;;;6188005;23;20870;-83
2022/01/31 10:59:44;;;;;;;631.13;580.97;;;10.10;99.90;;;;;;6197489;23;20441;-84
2022/01/31 11:02:16;;;;;;;634.57;585.20;;;9.90;99.90;;;;;;6187747;23;20415;-84
2022/01/31 11:04:44;;;;;;;652.17;599.10;;;10.10;99.90;;;;;;6187803;23;20436;-83
2022/01/31 11:07:14;;;;;;;659.57;607.00;;;10.10;99.90;;;;;;6188219;23;20417;-83
2022/01/31 11:09:42;;;;;;;669.73;614.57;;;10.20;99.90;;;;;;6187618;23;20516;-84
2022/01/31 11:12:11;;;;;;;681.53;626.57;;;10.20;99.90;;;;;;6188191;23;20946;-84
2022/01/31 11:14:39;;;;;;;707.80;647.20;;;10.80;99.90;;;;;;6187300;23;20413;-85
2022/01/31 11:17:09;;;;;;;693.57;637.17;;;10.80;99.90;;;;;;6187600;23;20416;-84
2022/01/31 11:19:39;;;;;;;672.17;617.57;;;10.70;99.90;;;;;;6187477;23;20429;-84
2022/01/31 11:22:08;;;;;;;653.17;602.50;;;10.70;99.90;;;;;;6189608;23;20459;-84
2022/01/31 11:24:38;;;;;;;667.77;614.80;;;10.60;99.90;;;;;;6190902;23;20819;-84
2022/01/31 11:27:10;;;;;;;658.73;604.70;;;10.60;99.90;;;;;;6190643;23;20436;-84
2022/01/31 11:29:42;;;;;;;677.33;622.03;;;10.70;99.90;;;;;;6190178;23;20429;-83
2022/01/31 11:32:16;;;;;;;661.80;608.17;;;10.50;99.90;;;;;;6189548;23;20867;-83
2022/01/31 11:34:46;;;;;;;679.27;622.47;;;10.80;99.90;;;;;;6200075;23;20446;-85
2022/01/31 11:37:15;;;;;;;654.63;602.23;;;10.80;99.90;;;;;;6189312;23;20407;-84
2022/01/31 11:39:44;;;;;;;653.03;600.50;;;10.40;99.90;;;;;;6189390;23;21006;-84
2022/01/31 11:42:12;;;;;;;657.67;604.10;;;10.90;99.90;;;;;;6189927;23;20499;-84
2022/01/31 11:44:45;;;;;;;649.07;597.13;;;10.40;99.90;;;;;;6189275;23;20995;-82
2022/01/31 11:47:12;;;;;;;647.80;595.70;;;10.30;99.90;;;;;;6189819;23;20397;-84
2022/01/31 11:49:50;;;;;;;651.17;593.23;;;10.70;99.90;;;;;;6189765;23;20432;-85
2022/01/31 11:52:18;;;;;;;668.00;611.80;;;10.60;99.90;;;;;;6192555;23;20408;-84
2022/01/31 11:54:50;;;;;;;648.37;594.80;;;10.20;99.90;;;;;;6189646;23;20416;-85
2022/01/31 11:57:18;;;;;;;625.40;573.90;;;10.40;99.90;;;;;;6189742;23;20491;-85
2022/01/31 11:59:49;;;;;;;607.80;558.97;;;10.60;99.90;;;;;;6189273;23;20469;-85
2022/01/31 12:02:16;;;;;;;580.20;531.70;;;10.40;99.90;;;;;;6188637;23;20461;-85
2022/01/31 12:04:49;;;;;;;550.47;507.33;;;10.40;99.90;;;;;;6198552;23;20437;-83
2022/01/31 12:07:39;;;;;;;587.63;540.17;;;10.50;99.90;;;;;;6188186;23;20484;-84
2022/01/31 12:10:16;;;;;;;580.20;535.00;;;10.80;99.90;;;;;;6189332;23;20439;-83
2022/01/31 12:12:49;;;;;;;640.77;590.60;;;10.50;99.90;;;;;;6187427;23;20401;-84
2022/01/31 12:15:45;;;;;;;620.10;573.60;;;10.40;99.90;;;;;;6188778;23;20452;-84
2022/01/31 12:18:38;;;;;;;677.20;621.57;;;10.80;99.90;;;;;;6187721;23;20413;-83
2022/01/31 12:23:59;;;;;;;627.63;579.07;;;10.50;99.90;;;;;;6188357;23;20919;-84
2022/01/31 12:26:49;;;;;;;641.33;589.43;;;10.60;99.90;;;;;;6188582;23;20747;-83
2022/01/31 12:29:17;;;;;;;613.50;564.57;;;10.60;99.90;;;;;;6187271;23;20397;-84
2022/01/31 12:31:47;;;;;;;622.33;574.80;;;10.90;99.90;;;;;;6188015;23;20417;-83
2022/01/31 12:34:38;;;;;;;677.60;621.73;;;10.60;99.90;;;;;;6188100;23;20441;-84
2022/01/31 12:37:16;;;;;;;666.60;613.60;;;10.90;99.90;;;;;;6188039;23;20474;-85
2022/01/31 12:39:56;;;;;;;683.57;627.47;;;10.90;99.90;;;;;;6188571;23;20439;-84
2022/01/31 12:45:53;;;;;;;627.10;579.60;;;10.50;99.90;;;;;;6183322;23;20440;-84
2022/01/31 12:48:24;;;;;;;654.57;603.67;;;10.80;99.90;;;;;;6188400;23;20409;-84
2022/01/31 12:51:14;;;;;;;601.40;556.40;;;10.40;99.90;;;;;;6188472;23;20447;-84
2022/01/31 12:53:53;;;;;;;676.13;620.90;;;10.50;99.90;;;;;;6188298;23;20398;-84
2022/01/31 12:56:26;;;;;;;645.27;595.27;;;10.70;99.90;;;;;;6188038;23;20393;-82
2022/01/31 12:58:56;;;;;;;683.03;625.53;;;10.70;99.90;;;;;;6187249;23;20484;-84
2022/01/31 13:01:24;;;;;;;692.53;632.70;;;10.80;99.90;;;;;;6188342;23;20461;-84
2022/01/31 13:03:53;;;;;;;667.67;611.57;;;10.70;99.90;;;;;;6188630;23;20433;-83
2022/01/31 13:06:42;;;;;;;663.93;608.37;;;10.40;99.90;;;;;;6187818;23;20413;-84
2022/01/31 13:09:22;;;;;;;678.13;622.30;;;10.40;99.90;;;;;;6177937;23;20444;-83
2022/01/31 13:11:54;;;;;;;657.97;603.47;;;10.60;99.90;;;;;;6189292;23;20788;-84
2022/01/31 13:14:23;;;;;;;675.63;619.97;;;10.70;99.90;;;;;;6188226;23;20405;-84
2022/01/31 13:17:01;;;;;;;670.10;613.80;;;10.30;99.90;;;;;;6188299;23;20405;-84
2022/01/31 13:19:35;;;;;;;688.00;632.13;;;10.20;99.90;;;;;;6188303;23;20469;-83
2022/01/31 13:22:08;;;;;;;685.13;628.10;;;10.60;99.90;;;;;;6189472;23;20399;-84
2022/01/31 13:24:39;;;;;;;725.50;660.53;;;10.30;99.90;;;;;;6187223;23;20421;-84
2022/01/31 13:27:09;;;;;;;717.17;654.97;;;10.30;99.90;;;;;;6197954;23;20596;-83
2022/01/31 13:29:50;;;;;;;714.83;651.07;;;10.80;99.90;;;;;;6186999;23;20439;-83
2022/01/31 13:32:23;;;;;;;742.23;676.77;;;10.60;99.90;;;;;;6189040;23;20468;-83
2022/01/31 13:34:53;;;;;;;751.17;682.57;;;10.90;99.90;;;;;;6187480;23;20409;-84
2022/01/31 13:37:47;;;;;;;696.63;633.97;;;10.70;99.90;;;;;;6189925;23;20484;-84
2022/01/31 13:40:25;;;;;;;686.07;625.90;;;10.90;99.90;;;;;;6187519;23;20437;-83
2022/01/31 13:43:09;;;;;;;704.10;643.07;;;11.10;99.90;;;;;;6188868;23;20397;-82
2022/01/31 13:45:44;;;;;;;693.30;630.60;;;11.00;99.90;;;;;;6187510;23;20429;-84
2022/01/31 13:48:17;;;;;;;696.40;633.70;;;11.20;99.90;;;;;;6187654;23;20978;-84
2022/01/31 13:50:46;;;;;;;717.97;650.63;;;11.10;99.90;;;;;;6187904;23;20443;-85
2022/01/31 13:53:14;;;;;;;683.70;620.83;;;11.20;99.90;;;;;;6187716;23;20412;-84
2022/01/31 13:55:48;;;;;;;661.90;601.13;;;10.80;99.90;;;;;;6189480;23;20445;-83
2022/01/31 13:58:23;;;;;;;685.73;626.53;;;10.60;99.90;;;;;;6189940;23;20401;-84
2022/01/31 14:00:50;;;;;;;736.80;671.77;;;10.30;99.90;;;;;;6188981;23;20463;-83
2022/01/31 14:03:19;;;;;;;759.43;695.37;;;10.90;99.90;;;;;;6188352;23;20420;-83
2022/01/31 14:05:59;;;;;;;788.77;724.20;;;11.00;99.90;;;;;;6188547;23;20441;-83
2022/01/31 14:08:39;;;;;;;800.30;734.33;;;11.20;99.90;;;;;;6188973;23;20404;-83
2022/01/31 14:11:13;;;;;;;823.53;755.83;;;10.20;99.90;;;;;;6187786;23;20433;-83
2022/01/31 14:13:43;;;;;;;831.40;764.40;;;11.00;99.90;;;;;;6188768;23;20479;-82
2022/01/31 14:16:13;;;;;;;832.40;764.13;;;11.00;99.90;;;;;;6188059;23;20413;-82
2022/01/31 14:18:40;;;;;;;820.93;752.73;;;10.20;99.90;;;;;;6188357;23;20785;-83
2022/01/31 14:21:08;;;;;;;822.60;753.80;;;10.50;99.90;;;;;;6186966;23;20437;-83
2022/01/31 14:23:37;;;;;;;832.13;763.03;;;10.60;99.90;;;;;;6188349;23;20524;-82
2022/01/31 14:26:05;;;;;;;825.40;757.03;;;10.90;99.90;;;;;;6188122;23;20813;-82
2022/01/31 14:28:38;;;;;;;848.90;780.53;;;11.00;99.90;;;;;;6188048;23;20419;-82
2022/01/31 14:31:06;;;;;;;820.23;755.70;;;10.90;99.90;;;;;;6188467;23;20460;-82
2022/01/31 14:33:33;;;;;;;837.20;771.00;;;11.00;99.90;;;;;;6187923;23;20451;-83
2022/01/31 14:36:05;;;;;;;853.57;786.77;;;10.30;99.90;;;;;;6187767;23;20900;-82
2022/01/31 14:38:39;;;;;;;810.83;747.13;;;10.40;99.90;;;;;;6198509;23;20744;-83
2022/01/31 14:41:14;;;;;;;804.57;740.57;;;11.10;99.90;;;;;;6188983;23;20449;-83
2022/01/31 14:49:20;;;;;;;819.10;754.30;;;10.40;99.90;;;;;;6188635;23;20385;-83
2022/01/31 14:51:47;;;;;;;791.37;727.60;;;11.00;99.90;;;;;;6189014;23;20397;-83
2022/01/31 14:54:15;;;;;;;794.90;731.00;;;11.10;99.90;;;;;;6189145;23;20409;-82
2022/01/31 14:56:43;;;;;;;808.63;744.93;;;10.20;99.90;;;;;;6190963;23;20408;-84
2022/01/31 14:59:11;;;;;;;792.87;728.87;;;10.30;99.90;;;;;;6190786;23;20747;-83
2022/01/31 15:01:38;;;;;;;807.00;742.83;;;10.90;99.90;;;;;;6190653;23;20413;-83
2022/01/31 15:04:17;;;;;;;824.13;759.13;;;10.30;99.90;;;;;;6190952;23;20408;-83
2022/01/31 15:06:43;;;;;;;841.17;775.90;;;10.40;99.90;;;;;;6190124;23;20942;-83
2022/01/31 15:09:10;;;;;;;795.03;731.63;;;11.10;99.90;;;;;;6190377;23;20417;-83
2022/01/31 15:11:37;;;;;;;798.50;735.93;;;11.00;99.90;;;;;;6190368;23;20420;-83
2022/01/31 15:14:04;;;;;;;753.90;694.40;;;10.40;99.90;;;;;;6191088;23;20413;-83
2022/01/31 15:16:33;;;;;;;784.27;722.50;;;10.40;99.90;;;;;;6191032;23;20424;-83
2022/01/31 15:19:00;;;;;;;843.70;779.20;;;10.70;99.90;;;;;;6190325;23;20416;-82
2022/01/31 15:21:28;;;;;;;809.73;746.23;;;11.20;99.90;;;;;;6190338;23;20416;-84
2022/01/31 15:23:56;;;;;;;810.70;746.90;;;11.20;99.90;;;;;;6190110;23;20420;-83
2022/01/31 15:26:23;;;;;;;813.80;749.60;;;10.50;99.90;;;;;;6189906;23;20524;-83
2022/01/31 15:28:51;;;;;;;788.47;725.57;;;10.60;99.90;;;;;;6190170;23;20417;-83
2022/01/31 15:31:19;;;;;;;784.73;721.33;;;10.60;99.90;;;;;;6189739;23;20438;-83
2022/01/31 15:33:49;;;;;;;758.37;697.27;;;10.80;99.90;;;;;;6190444;23;20416;-83
2022/01/31 15:36:17;;;;;;;775.37;713.50;;;11.00;99.90;;;;;;6189801;23;20417;-82
2022/01/31 15:38:46;;;;;;;768.13;706.53;;;10.80;99.90;;;;;;6190191;23;20419;-83
2022/01/31 15:41:15;;;;;;;803.37;739.77;;;10.90;99.90;;;;;;6190015;23;20432;-83
2022/01/31 15:43:42;;;;;;;879.37;810.40;;;10.60;99.90;;;;;;6189804;23;20415;-83
2022/01/31 15:46:10;;;;;;;889.70;819.60;;;10.60;99.90;;;;;;6189585;23;20443;-82
2022/01/31 15:48:37;;;;;;;899.13;827.43;;;10.50;99.90;;;;;;6188886;23;20413;-83
2022/01/31 15:51:06;;;;;;;895.17;825.87;;;11.30;99.90;;;;;;6190805;23;20433;-83
2022/01/31 15:53:33;;;;;;;888.90;820.60;;;10.70;99.90;;;;;;6189975;23;20413;-83
2022/01/31 15:56:00;;;;;;;852.10;786.50;;;10.70;99.90;;;;;;6189885;23;20410;-83
2022/01/31 15:58:26;;;;;;;845.40;779.50;;;11.20;99.90;;;;;;6189364;23;20423;-83
2022/01/31 16:00:56;;;;;;;814.87;751.10;;;11.30;99.90;;;;;;6189347;23;20428;-83
2022/01/31 16:03:23;;;;;;;840.03;774.53;;;11.20;99.90;;;;;;6194213;23;20419;-83
2022/01/31 16:05:49;;;;;;;785.10;722.60;;;10.90;99.90;;;;;;6198076;23;20440;-83
2022/01/31 16:08:21;;;;;;;767.63;706.30;;;11.10;99.90;;;;;;6190932;23;20753;-84
2022/01/31 16:10:48;;;;;;;727.43;670.07;;;10.50;99.90;;;;;;6189639;23;20439;-83
2022/01/31 16:13:19;;;;;;;783.97;721.40;;;11.20;99.90;;;;;;6189635;23;20436;-84
2022/01/31 16:15:48;;;;;;;839.50;774.00;;;10.60;99.90;;;;;;6189792;23;20393;-84
2022/01/31 16:18:15;;;;;;;780.47;719.00;;;11.20;99.90;;;;;;6189675;23;20424;-84
2022/01/31 16:20:43;;;;;;;846.23;780.43;;;11.30;99.90;;;;;;6191170;23;20440;-84
2022/01/31 16:23:10;;;;;;;865.80;798.57;;;11.30;99.90;;;;;;6190354;23;20419;-85
2022/01/31 16:25:40;;;;;;;889.43;819.50;;;11.10;99.90;;;;;;6191100;23;20460;-83
2022/01/31 16:28:38;;;;;;;891.40;820.80;;;11.20;99.90;;;;;;6190804;23;20451;-84
2022/01/31 16:31:08;;;;;;;885.77;816.17;;;10.50;99.90;;;;;;6179506;23;20785;-84
2022/01/31 16:33:35;;;;;;;885.73;815.60;;;11.10;99.90;;;;;;6199687;23;20412;-85
2022/01/31 16:38:54;;;;;;;883.97;813.03;;;11.00;99.90;;;;;;6158022;23;20418;-84
2022/01/31 16:41:59;;;;;;;890.23;817.63;;;10.60;99.90;;;;;;6170357;23;20437;-85
2022/01/31 16:44:34;;;;;;;874.90;801.67;;;10.30;99.90;;;;;;6161840;23;20425;-85
2022/01/31 16:47:11;;;;;;;874.77;802.57;;;10.30;99.90;;;;;;6171404;23;20414;-85
2022/01/31 16:49:44;;;;;;;872.33;801.43;;;10.30;99.90;;;;;;6169927;23;20767;-85
2022/01/31 16:52:16;;;;;;;885.27;812.87;;;10.20;99.90;;;;;;6171191;23;20469;-84
2022/01/31 16:54:58;;;;;;;;;;;;;;;;;;;;;
2022/01/31 16:57:31;;;;;;;889.37;816.03;;;10.80;99.90;;;;;;6161154;23;20747;-85
2022/01/31 17:00:08;;;;;;;863.53;791.53;;;9.90;99.90;;;;;;6170538;23;20573;-85
2022/01/31 17:02:48;;;;;;;847.67;782.23;;;10.70;99.90;;;;;;6161652;23;20530;-85
2022/01/31 17:05:20;;;;;;;842.60;776.63;;;10.20;99.90;;;;;;6171199;23;20928;-85
2022/01/31 17:07:52;;;;;;;860.00;792.60;;;9.40;99.90;;;;;;6159979;23;20449;-84
2022/01/31 17:10:21;;;;;;;853.47;786.77;;;7.30;99.90;;;;;;6170547;23;20485;-84
2022/01/31 17:12:51;;;;;;;850.73;782.93;;;6.40;99.90;;;;;;6169776;23;20414;-84
2022/01/31 17:15:20;;;;;;;810.77;743.97;;;7.70;99.90;;;;;;6159518;23;20417;-84
2022/01/31 17:17:49;;;;;;;833.23;764.13;;;5.80;99.90;;;;;;6160988;23;20420;-85
2022/01/31 17:20:17;;;;;;;842.07;773.83;;;6.80;99.90;;;;;;6159987;23;20434;-85
2022/01/31 17:22:44;;;;;;;839.23;767.83;;;5.60;99.90;;;;;;6159364;23;20496;-84
2022/01/31 17:25:12;;;;;;;820.93;750.67;;;6.50;99.90;;;;;;6159721;23;20437;-85
2022/01/31 17:27:39;;;;;;;840.30;770.20;;;6.40;99.90;;;;;;6159611;23;20414;-85
2022/01/31 17:30:10;;;;;;;845.50;773.50;;;5.20;99.90;;;;;;6159095;23;20440;-85
2022/01/31 17:32:37;;;;;;;844.63;770.93;;;5.30;99.90;;;;;;6160148;23;20449;-84
2022/01/31 17:35:07;;;;;;;832.83;759.53;;;6.20;99.90;;;;;;6172775;23;20420;-84
2022/01/31 17:37:35;;;;;;;828.27;754.27;;;5.40;99.90;;;;;;6189025;23;20397;-85
2022/01/31 17:40:02;;;;;;;829.90;755.53;;;5.70;99.90;;;;;;6189687;23;20509;-85
2022/01/31 17:42:31;;;;;;;822.00;747.10;;;5.60;99.90;;;;;;6188358;23;20413;-84
2022/01/31 17:45:00;;;;;;;830.80;755.70;;;5.50;99.90;;;;;;6196865;23;20413;-85
2022/01/31 17:47:29;;;;;;;849.97;775.97;;;4.90;99.90;;;;;;6187830;23;20417;-83
2022/01/31 17:49:56;;;;;;;843.70;769.30;;;5.00;99.90;;;;;;6185236;23;20433;-83
2022/01/31 17:52:23;;;;;;;843.70;766.80;;;5.50;99.90;;;;;;6187028;23;20452;-83
2022/01/31 17:54:50;;;;;;;849.00;771.80;;;5.00;99.90;;;;;;6187148;23;20947;-84
2022/01/31 17:57:17;;;;;;;836.80;761.40;;;5.20;99.90;;;;;;6188674;23;20417;-85
2022/01/31 17:59:44;;;;;;;878.07;804.67;;;5.30;99.90;;;;;;6190920;23;20524;-86
2022/01/31 18:02:11;;;;;;;886.03;813.07;;;5.20;99.90;;;;;;6191019;23;20448;-85
2022/01/31 18:04:39;;;;;;;870.97;796.37;;;5.20;99.90;;;;;;6191558;23;20496;-86
2022/01/31 18:07:06;;;;;;;865.97;792.27;;;5.70;99.90;;;;;;6191481;23;20947;-85
2022/01/31 18:09:33;;;;;;;881.23;805.43;;;5.40;99.90;;;;;;6189702;23;20436;-86
2022/01/31 18:11:59;;;;;;;884.73;809.23;;;5.30;99.90;;;;;;6191628;23;20939;-85
2022/01/31 18:14:26;;;;;;;858.60;784.90;;;5.50;99.90;;;;;;6191467;23;20423;-86
2022/01/31 18:16:53;;;;;;;867.23;793.77;;;5.60;99.90;;;;;;6191112;23;20414;-86
2022/01/31 18:19:23;;;;;;;863.60;789.90;;;5.30;99.90;;;;;;6192647;23;20437;-85
2022/01/31 18:21:51;;;;;;;857.43;783.10;;;5.20;99.90;;;;;;6191607;23;20413;-87
2022/01/31 18:24:19;;;;;;;859.57;786.50;;;5.20;99.90;;;;;;6190365;23;20484;-86
2022/01/31 18:26:46;;;;;;;859.20;789.20;;;5.30;99.90;;;;;;6190816;23;20523;-85
2022/01/31 18:29:13;;;;;;;863.07;792.67;;;5.40;99.90;;;;;;6189831;23;20444;-84
2022/01/31 18:31:40;;;;;;;864.77;795.03;;;5.50;99.90;;;;;;6192726;23;20480;-85
2022/01/31 18:34:07;;;;;;;851.63;782.47;;;5.60;99.90;;;;;;6192872;23;20412;-86
2022/01/31 18:36:34;;;;;;;960.67;881.37;;;5.50;99.90;;;;;;6194266;23;20422;-85
2022/01/31 18:39:02;;;;;;;866.90;796.93;;;5.60;99.90;;;;;;6191202;23;20774;-86
2022/01/31 18:41:29;;;;;;;958.60;876.20;;;5.20;99.90;;;;;;6188226;23;20726;-85
2022/01/31 18:44:01;;;;;;;900.60;826.87;;;5.40;99.90;;;;;;6192020;23;20419;-85
2022/01/31 18:46:31;;;;;;;890.63;818.20;;;5.90;99.90;;;;;;6192865;23;20428;-85
2022/01/31 18:48:58;;;;;;;916.57;842.57;;;5.40;99.90;;;;;;6193939;23;20416;-86
2022/01/31 18:51:25;;;;;;;877.00;805.13;;;6.20;99.90;;;;;;6194044;23;20915;-86
2022/01/31 18:53:53;;;;;;;930.00;852.60;;;5.70;99.90;;;;;;6194963;23;20417;-85
2022/01/31 18:56:22;;;;;;;840.03;770.47;;;5.40;99.90;;;;;;6194314;23;20413;-86
2022/01/31 18:58:49;;;;;;;929.10;854.30;;;5.60;99.90;;;;;;6204242;23;20423;-86
2022/01/31 19:01:16;;;;;;;864.30;794.53;;;6.30;99.90;;;;;;6194784;23;20439;-86
2022/01/31 19:03:43;;;;;;;913.53;837.50;;;5.50;99.90;;;;;;6194515;23;20415;-86
2022/01/31 19:06:10;;;;;;;912.77;836.53;;;6.20;99.90;;;;;;6195315;23;20444;-86
2022/01/31 19:08:36;;;;;;;893.73;817.73;;;5.70;99.90;;;;;;6204523;23;20773;-85
2022/01/31 19:11:09;;;;;;;894.93;822.47;;;5.60;99.90;;;;;;6194178;23;20444;-85
2022/01/31 19:13:48;;;;;;;913.47;837.70;;;5.50;99.90;;;;;;6205630;23;20417;-85
2022/01/31 19:16:16;;;;;;;910.47;834.83;;;5.40;99.90;;;;;;6195362;23;20404;-86
2022/01/31 19:18:45;;;;;;;902.77;828.30;;;5.60;99.90;;;;;;6192830;23;20416;-86
2022/01/31 19:21:15;;;;;;;894.77;819.53;;;6.10;99.90;;;;;;6193244;23;20461;-84
2022/01/31 19:23:42;;;;;;;990.53;903.63;;;5.50;99.90;;;;;;6193952;23;20942;-86
2022/01/31 19:26:09;;;;;;;882.27;810.33;;;5.80;99.90;;;;;;6195104;23;20447;-87
2022/01/31 19:28:38;;;;;;;920.30;843.30;;;5.20;99.90;;;;;;6205285;23;20493;-86
2022/01/31 19:31:06;;;;;;;919.10;843.80;;;5.60;99.90;;;;;;6195169;23;20966;-86
2022/01/31 19:33:32;;;;;;;896.20;825.00;;;5.10;99.90;;;;;;6193319;23;20499;-85
2022/01/31 19:35:59;;;;;;;899.57;827.77;;;5.80;99.90;;;;;;6193838;23;20428;-86
2022/01/31 19:38:31;;;;;;;924.90;848.40;;;5.70;99.90;;;;;;6194774;23;20413;-86
2022/01/31 19:43:47;;;;;;;903.10;826.20;;;5.20;99.90;;;;;;6193396;23;20439;-86
2022/01/31 19:46:17;;;;;;;876.67;802.00;;;5.50;99.90;;;;;;6193540;23;20500;-85